Time;durP1;ratioP1;P1;durP2;ratioP2;P2;SDS_P1;SDS_P2;PMS_P1;PMS_P2;Temp;Humidity;BMP_temperature;BMP_pressure;BME280_temperature;BME280_humidity;BME280_pressure;Samples;Min_cycle;Max_cycle;Signal;HPM_P1;HPM_P2
2023/01/04 00:01:13;;;;;;;47.17;43.17;;;;;;;6.00;100.00;101785.13;4979350;28;20474;-48
2023/01/04 00:03:41;;;;;;;45.30;41.47;;;;;;;6.00;100.00;101764.75;4977955;28;20439;-47
2023/01/04 00:06:13;;;;;;;47.00;42.67;;;;;;;6.02;100.00;101770.75;4978436;28;20933;-50
2023/01/04 00:08:41;;;;;;;45.57;41.23;;;;;;;6.03;100.00;101769.75;4979202;28;20478;-50
2023/01/04 00:11:12;;;;;;;46.33;42.23;;;;;;;6.04;100.00;101768.78;4984868;28;20430;-45
2023/01/04 00:13:40;;;;;;;45.87;41.57;;;;;;;6.07;100.00;101765.03;4978135;28;20809;-46
2023/01/04 00:16:12;;;;;;;43.73;40.03;;;;;;;6.08;100.00;101741.06;4982413;28;20529;-46
2023/01/04 00:18:40;;;;;;;43.90;40.20;;;;;;;6.08;100.00;101741.06;4979961;28;20470;-47
2023/01/04 00:21:12;;;;;;;44.47;40.50;;;;;;;6.09;100.00;101737.41;4988640;28;21047;-48
2023/01/04 00:23:42;;;;;;;43.93;40.10;;;;;;;6.11;100.00;101730.19;4987236;28;21029;-46
2023/01/04 00:26:11;;;;;;;41.60;38.30;;;;;;;6.11;100.00;101718.75;4981072;28;20493;-46
2023/01/04 00:28:39;;;;;;;42.57;39.10;;;;;;;6.13;100.00;101719.44;4981664;28;20484;-46
2023/01/04 00:31:09;;;;;;;41.43;38.13;;;;;;;6.13;100.00;101706.19;4981117;28;20431;-45
2023/01/04 00:33:37;;;;;;;42.47;39.10;;;;;;;6.11;100.00;101698.41;4981737;28;20441;-46
2023/01/04 00:36:07;;;;;;;41.47;37.80;;;;;;;6.13;100.00;101682.34;4978136;28;20435;-46
2023/01/04 00:38:37;;;;;;;39.97;36.33;;;;;;;6.13;100.00;101679.72;4995918;28;20865;-47
2023/01/04 00:41:06;;;;;;;41.97;38.53;;;;;;;6.11;100.00;101663.16;5004031;28;20481;-46
2023/01/04 00:43:34;;;;;;;41.93;38.33;;;;;;;6.13;100.00;101658.53;4996476;28;20433;-50
2023/01/04 00:46:02;;;;;;;42.73;39.20;;;;;;;6.14;100.00;101646.97;5002246;28;20437;-47
2023/01/04 00:48:30;;;;;;;42.00;38.63;;;;;;;6.12;100.00;101643.63;4985563;28;20485;-48
2023/01/04 00:51:02;;;;;;;42.10;38.70;;;;;;;6.12;100.00;101644.44;5012021;28;20429;-46
2023/01/04 00:53:29;;;;;;;40.80;37.67;;;;;;;6.11;100.00;101620.78;4976780;28;20951;-46
2023/01/04 00:56:00;;;;;;;42.77;39.37;;;;;;;6.10;100.00;101619.94;4996474;28;20437;-45
2023/01/04 00:58:28;;;;;;;39.97;36.53;;;;;;;6.10;100.00;101609.34;5006533;28;20441;-44
2023/01/04 01:00:56;;;;;;;40.43;37.27;;;;;;;6.10;100.00;101603.22;5009222;28;20835;-45
2023/01/04 01:03:23;;;;;;;40.37;36.70;;;;;;;6.10;100.00;101601.41;5003097;28;20461;-47
2023/01/04 01:05:51;;;;;;;38.80;35.90;;;;;;;6.10;100.00;101595.25;5005041;28;20491;-48
2023/01/04 01:08:25;;;;;;;38.73;35.90;;;;;;;6.09;100.00;101588.31;5001063;28;20483;-47
2023/01/04 01:10:53;;;;;;;39.13;35.97;;;;;;;6.09;100.00;101588.31;4997832;28;20465;-44
2023/01/04 01:13:23;;;;;;;40.10;37.00;;;;;;;6.08;100.00;101586.66;5001599;28;20944;-45
2023/01/04 01:15:50;;;;;;;38.97;36.17;;;;;;;6.11;100.00;101586.34;4999185;28;20430;-45
2023/01/04 01:18:19;;;;;;;37.83;34.90;;;;;;;6.11;100.00;101579.25;4997607;28;20548;-48
2023/01/04 01:20:47;;;;;;;39.40;36.30;;;;;;;6.12;100.00;101577.44;4998653;28;21171;-44
2023/01/04 01:23:15;;;;;;;37.30;34.73;;;;;;;6.12;100.00;101575.59;4990814;28;20855;-48
2023/01/04 01:25:43;;;;;;;37.13;34.43;;;;;;;6.14;100.00;101572.81;5000793;28;20446;-47
2023/01/04 01:28:11;;;;;;;39.10;35.70;;;;;;;6.13;100.00;101557.91;5005822;28;20560;-46
2023/01/04 01:30:41;;;;;;;38.27;35.17;;;;;;;6.12;100.00;101546.47;5005677;28;21014;-48
2023/01/04 01:33:09;;;;;;;38.57;35.87;;;;;;;6.11;100.00;101531.56;5006558;28;20453;-46
2023/01/04 01:35:37;;;;;;;37.17;34.60;;;;;;;6.11;100.00;101526.28;4991683;28;20439;-45
2023/01/04 01:38:05;;;;;;;37.40;35.00;;;;;;;6.13;100.00;101526.13;4995015;28;21007;-46
2023/01/04 01:40:33;;;;;;;36.27;33.57;;;;;;;6.12;100.00;101511.22;5008005;28;20461;-45
2023/01/04 01:43:01;;;;;;;36.60;33.77;;;;;;;6.14;100.00;101514.56;5004615;28;20477;-47
2023/01/04 01:45:32;;;;;;;35.13;32.60;;;;;;;6.11;100.00;101502.44;5001209;28;20437;-46
2023/01/04 01:48:07;;;;;;;34.83;32.47;;;;;;;6.15;100.00;101504.81;4999094;28;20446;-47
2023/01/04 01:50:40;;;;;;;35.87;33.20;;;;;;;6.17;100.00;101497.53;5004006;28;20471;-45
2023/01/04 01:53:09;;;;;;;33.63;31.40;;;;;;;6.15;100.00;101488.91;5006659;28;20985;-45
2023/01/04 01:55:39;;;;;;;35.03;32.83;;;;;;;6.14;100.00;101482.78;4983474;28;20430;-49
2023/01/04 01:58:11;;;;;;;35.40;32.90;;;;;;;6.13;100.00;101467.84;4976188;28;20454;-46
2023/01/04 02:00:38;;;;;;;35.47;33.07;;;;;;;6.12;100.00;101464.38;4981016;28;20456;-45
2023/01/04 02:03:13;;;;;;;35.50;33.33;;;;;;;6.12;100.00;101463.56;4990140;28;20865;-47
2023/01/04 02:05:43;;;;;;;34.83;32.70;;;;;;;6.15;100.00;101457.13;4983213;28;20432;-44
2023/01/04 02:08:13;;;;;;;34.33;32.23;;;;;;;6.14;100.00;101443.06;4985930;28;20459;-45
2023/01/04 02:10:41;;;;;;;34.00;31.70;;;;;;;6.17;100.00;101436.63;4992911;28;20494;-45
2023/01/04 02:13:12;;;;;;;33.73;31.43;;;;;;;6.16;100.00;101425.19;4996831;28;20433;-47
2023/01/04 02:16:00;;;;;;;34.27;31.60;;;;;;;6.18;100.00;101427.69;4977402;28;20431;-45
2023/01/04 02:18:36;;;;;;;32.13;30.17;;;;;;;6.17;100.00;101407.50;4997706;28;20459;-46
2023/01/04 02:21:12;;;;;;;32.93;30.63;;;;;;;6.20;100.00;101402.72;5009574;28;20436;-45
2023/01/04 02:24:07;;;;;;;32.47;30.40;;;;;;;6.19;100.00;101382.50;5005323;28;20435;-49
2023/01/04 02:27:10;;;;;;;31.87;29.80;;;;;;;6.19;100.00;101381.69;5003136;28;20438;-46
2023/01/04 02:30:29;;;;;;;31.50;29.60;;;;;;;6.21;100.00;101367.31;5009631;28;20534;-49
2023/01/04 02:33:13;;;;;;;33.90;31.93;;;;;;;6.19;100.00;101356.03;4957852;28;20981;-47
2023/01/04 02:35:50;;;;;;;31.70;29.70;;;;;;;6.21;100.00;101345.31;4994271;28;20447;-46
2023/01/04 02:38:25;;;;;;;30.80;29.00;;;;;;;6.23;100.00;101345.97;4995048;28;20453;-46
2023/01/04 02:41:00;;;;;;;31.40;29.47;;;;;;;6.20;100.00;101325.94;5007374;28;20800;-45
2023/01/04 02:46:26;;;;;;;31.03;29.00;;;;;;;6.21;100.00;101324.13;4978760;28;20439;-45
2023/01/04 02:51:44;;;;;;;30.07;28.40;;;;;;;6.20;100.00;101307.38;4990614;28;20433;-45
2023/01/04 02:54:15;;;;;;;31.80;29.10;;;;;;;6.18;100.00;101296.13;4985513;28;20438;-46
2023/01/04 02:57:04;;;;;;;30.93;29.00;;;;;;;6.15;100.00;101285.84;4981444;28;20435;-46
2023/01/04 02:59:50;;;;;;;31.20;29.03;;;;;;;6.13;100.00;101283.34;4984393;28;20470;-45
2023/01/04 03:08:29;;;;;;;30.03;28.20;;;;;;;6.11;100.00;101253.53;4988954;28;20450;-45
2023/01/04 03:11:01;;;;;;;30.73;29.00;;;;;;;6.13;100.00;101262.16;5007928;28;20942;-47
2023/01/04 03:13:32;;;;;;;31.17;29.00;;;;;;;6.12;100.00;101241.94;4991190;28;20528;-46
2023/01/04 03:16:07;;;;;;;30.70;28.50;;;;;;;6.15;100.00;101237.34;5003787;28;20438;-45
2023/01/04 03:18:39;;;;;;;29.97;28.33;;;;;;;6.11;100.00;101216.47;4983829;28;20442;-45
2023/01/04 03:21:11;;;;;;;30.50;28.50;;;;;;;6.09;100.00;101215.78;4979959;28;20435;-44
2023/01/04 03:37:48;;;;;;;29.80;28.10;;;;;;;6.08;100.00;101161.19;5009993;28;20429;-47
2023/01/04 03:48:57;;;;;;;29.53;27.80;;;;;;;6.07;100.00;101127.75;4997855;28;20462;-45
2023/01/04 03:51:28;;;;;;;29.60;28.10;;;;;;;6.07;100.00;101117.16;4998354;28;20432;-47
2023/01/04 03:54:03;;;;;;;30.73;28.80;;;;;;;6.07;100.00;101113.66;4991150;28;20461;-51
2023/01/04 03:56:33;;;;;;;29.60;27.90;;;;;;;6.07;100.00;101109.19;4990019;28;20814;-51
2023/01/04 03:59:01;;;;;;;29.67;28.07;;;;;;;6.07;100.00;101098.63;4992581;28;20457;-48
2023/01/04 04:01:29;;;;;;;30.97;28.70;;;;;;;6.06;100.00;101089.00;5002451;28;20957;-47
2023/01/04 04:09:29;;;;;;;30.20;28.53;;;;;;;6.11;100.00;101080.59;4983960;28;20489;-50
2023/01/04 04:11:57;;;;;;;29.80;28.10;;;;;;;6.12;100.00;101056.59;5001769;28;20433;-48
2023/01/04 04:14:25;;;;;;;30.73;28.47;;;;;;;6.14;100.00;101067.03;5011628;28;20842;-46
2023/01/04 04:16:53;;;;;;;32.37;29.90;;;;;;;6.11;100.00;101052.31;5006290;28;20434;-49
2023/01/04 04:19:21;;;;;;;31.23;29.10;;;;;;;6.12;100.00;101045.19;5008611;28;20847;-47
2023/01/04 04:21:49;;;;;;;30.60;28.80;;;;;;;6.10;100.00;101033.91;5008051;28;20851;-47
2023/01/04 04:24:18;;;;;;;31.03;29.30;;;;;;;6.11;100.00;101022.34;4992803;28;20504;-45
2023/01/04 04:26:47;;;;;;;30.50;28.77;;;;;;;6.16;100.00;101016.56;5006494;28;20840;-46
2023/01/04 04:29:15;;;;;;;31.30;29.37;;;;;;;6.13;100.00;101007.94;5007399;28;20499;-46
2023/01/04 04:31:43;;;;;;;32.37;30.47;;;;;;;6.16;100.00;101000.66;4995438;28;20445;-48
2023/01/04 04:34:11;;;;;;;31.27;29.30;;;;;;;6.16;100.00;100987.44;5008510;28;20520;-45
2023/01/04 04:36:39;;;;;;;31.40;29.57;;;;;;;6.16;100.00;100980.31;4994989;28;20439;-45
2023/01/04 04:39:07;;;;;;;31.03;29.30;;;;;;;6.17;100.00;100975.84;5002948;28;21002;-45
2023/01/04 04:41:40;;;;;;;31.90;30.10;;;;;;;6.18;100.00;100966.94;4974884;28;20881;-47
2023/01/04 04:44:11;;;;;;;30.97;29.17;;;;;;;6.20;100.00;100954.34;4996398;28;20566;-47
2023/01/04 04:46:39;;;;;;;30.93;29.27;;;;;;;6.22;100.00;100947.06;4977548;28;21011;-49
2023/01/04 04:49:07;;;;;;;30.23;28.50;;;;;;;6.20;100.00;100946.41;4976456;28;20466;-44
2023/01/04 04:51:36;;;;;;;30.30;28.70;;;;;;;6.22;100.00;100937.31;4983096;28;20449;-45
2023/01/04 04:54:05;;;;;;;31.13;29.00;;;;;;;6.22;100.00;100926.69;4991705;28;20434;-48
2023/01/04 04:56:33;;;;;;;30.60;28.80;;;;;;;6.25;100.00;100928.19;5007093;28;20441;-45
2023/01/04 04:59:00;;;;;;;31.97;29.87;;;;;;;6.28;100.00;100911.97;4995984;28;20469;-47
2023/01/04 05:01:30;;;;;;;30.80;29.13;;;;;;;6.27;100.00;100910.34;4988944;28;20430;-44
2023/01/04 05:03:58;;;;;;;31.10;29.20;;;;;;;6.27;100.00;100902.41;4985142;28;20983;-50
2023/01/04 05:06:26;;;;;;;31.27;29.00;;;;;;;6.28;100.00;100885.50;4989620;28;20812;-47
2023/01/04 05:08:54;;;;;;;31.33;29.53;;;;;;;6.31;100.00;100887.81;4997282;28;20535;-45
2023/01/04 05:12:58;;;;;;;31.03;29.20;;;;;;;6.32;100.00;100876.22;5003769;28;20441;-47
2023/01/04 05:14:08;;;;;;;31.70;29.90;;;;;;;6.34;100.00;100868.94;4973201;28;20442;-45
2023/01/04 05:16:37;;;;;;;30.93;29.17;;;;;;;6.35;100.00;100862.66;5009440;28;20939;-51
2023/01/04 05:19:05;;;;;;;30.63;28.93;;;;;;;6.38;100.00;100854.38;4988547;28;20478;-47
2023/01/04 05:21:32;;;;;;;30.63;29.00;;;;;;;6.39;100.00;100842.81;4999402;28;20545;-47
2023/01/04 05:24:00;;;;;;;31.27;29.67;;;;;;;6.40;100.00;100833.84;5004397;28;20472;-47
2023/01/04 05:26:28;;;;;;;30.67;28.77;;;;;;;6.43;100.00;100828.22;4999453;28;20782;-45
2023/01/04 05:28:55;;;;;;;30.70;29.10;;;;;;;6.45;100.00;100835.00;5008640;28;20465;-50
2023/01/04 05:31:23;;;;;;;31.20;29.17;;;;;;;6.47;100.00;100824.25;5005408;28;20927;-45
2023/01/04 05:33:52;;;;;;;31.83;29.83;;;;;;;6.47;100.00;100816.28;5005136;28;20496;-45
2023/01/04 05:36:20;;;;;;;29.87;28.27;;;;;;;6.48;100.00;100808.16;5002439;28;20438;-48
2023/01/04 05:38:47;;;;;;;29.40;28.00;;;;;;;6.48;100.00;100800.22;5004553;28;20457;-47
2023/01/04 05:44:00;;;;;;;30.07;28.57;;;;;;;6.52;100.00;100785.66;4999525;28;20471;-46
2023/01/04 05:46:28;;;;;;;30.07;28.57;;;;;;;6.54;100.00;100793.44;5005270;28;20437;-45
2023/01/04 05:48:57;;;;;;;29.90;28.30;;;;;;;6.54;100.00;100773.03;5003813;28;20500;-45
2023/01/04 05:51:24;;;;;;;29.50;27.90;;;;;;;6.57;100.00;100770.06;5005823;28;20441;-47
2023/01/04 05:53:52;;;;;;;29.40;27.90;;;;;;;6.59;100.00;100775.19;5003165;28;20806;-45
2023/01/04 05:56:20;;;;;;;29.90;28.40;;;;;;;6.59;100.00;100759.31;4999537;28;20442;-46
2023/01/04 05:58:47;;;;;;;29.00;27.67;;;;;;;6.59;100.00;100752.19;4992679;28;20535;-45
2023/01/04 06:01:15;;;;;;;30.17;28.67;;;;;;;6.62;100.00;100735.13;5001671;28;20469;-45
2023/01/04 06:03:42;;;;;;;29.30;27.90;;;;;;;6.63;100.00;100742.09;5009597;28;20476;-43
2023/01/04 06:06:12;;;;;;;29.40;27.80;;;;;;;6.65;100.00;100745.38;5001338;28;20832;-45
2023/01/04 06:08:39;;;;;;;30.00;28.60;;;;;;;6.67;100.00;100738.91;5008866;28;20465;-47
2023/01/04 06:11:07;;;;;;;29.67;28.07;;;;;;;6.68;100.00;100727.31;4975140;28;20824;-44
2023/01/04 06:13:35;;;;;;;30.87;29.30;;;;;;;6.72;100.00;100730.44;4977579;28;20438;-47
2023/01/04 06:16:02;;;;;;;29.47;27.87;;;;;;;6.74;100.00;100720.50;4973656;28;20435;-45
2023/01/04 06:18:30;;;;;;;29.10;27.70;;;;;;;6.75;100.00;100703.59;4994917;28;20457;-46
2023/01/04 06:20:58;;;;;;;28.47;26.90;;;;;;;6.77;100.00;100709.56;4988599;28;20430;-46
2023/01/04 06:23:27;;;;;;;29.57;28.00;;;;;;;6.79;100.00;100702.25;5009516;28;20477;-49
2023/01/04 06:25:54;;;;;;;29.30;27.90;;;;;;;6.80;100.00;100703.91;4995455;28;20801;-46
2023/01/04 06:28:22;;;;;;;29.70;28.10;;;;;;;6.83;100.00;100690.31;4984896;28;20459;-46
2023/01/04 06:30:50;;;;;;;29.20;27.70;;;;;;;6.87;100.00;100682.84;4994902;28;20450;-47
2023/01/04 06:33:18;;;;;;;29.53;28.03;;;;;;;6.89;100.00;100683.47;5010726;28;20930;-45
2023/01/04 06:35:53;;;;;;;28.93;27.43;;;;;;;6.90;100.00;100677.19;4997808;28;20593;-46
2023/01/04 06:38:21;;;;;;;29.50;27.70;;;;;;;6.94;100.00;100660.75;5003448;28;20518;-46
2023/01/04 06:40:50;;;;;;;28.83;27.33;;;;;;;6.98;100.00;100653.28;5011157;28;20459;-45
2023/01/04 06:43:18;;;;;;;29.03;27.30;;;;;;;7.01;100.00;100652.94;4979870;28;20849;-49
2023/01/04 06:45:45;;;;;;;28.43;27.03;;;;;;;7.04;100.00;100655.22;4980076;28;20438;-45
2023/01/04 06:48:13;;;;;;;28.90;27.50;;;;;;;7.07;100.00;100665.47;5000802;28;20469;-45
2023/01/04 06:50:45;;;;;;;27.67;26.17;;;;;;;7.09;100.00;100655.50;4983226;28;20916;-46
2023/01/04 06:53:13;;;;;;;28.03;26.53;;;;;;;7.12;100.00;100656.00;4983346;28;20471;-44
2023/01/04 06:55:40;;;;;;;28.27;26.80;;;;;;;7.15;100.00;100630.94;4998644;28;20441;-45
2023/01/04 06:58:09;;;;;;;28.03;26.63;;;;;;;7.17;100.00;100628.94;4999783;28;20461;-47
2023/01/04 07:00:37;;;;;;;27.70;26.20;;;;;;;7.21;100.00;100640.84;5008894;28;20498;-45
2023/01/04 07:03:05;;;;;;;28.43;26.73;;;;;;;7.23;100.00;100630.88;5016594;28;20459;-44
2023/01/04 07:05:42;;;;;;;27.60;26.30;;;;;;;7.27;100.00;100621.56;5005766;28;20461;-44
2023/01/04 07:08:11;;;;;;;27.63;26.30;;;;;;;7.30;100.00;100618.56;5006446;28;20452;-45
2023/01/04 07:10:38;;;;;;;28.00;26.70;;;;;;;7.32;100.00;100636.97;4995330;28;20839;-45
2023/01/04 07:13:07;;;;;;;27.80;26.40;;;;;;;7.34;100.00;100621.69;5008072;28;20497;-44
2023/01/04 07:15:36;;;;;;;27.20;25.90;;;;;;;7.38;100.00;100596.47;5009517;28;20433;-44
2023/01/04 07:18:08;;;;;;;27.50;26.20;;;;;;;7.41;100.00;100606.69;5014225;28;21054;-44
2023/01/04 07:20:37;;;;;;;26.90;25.60;;;;;;;7.43;100.00;100626.75;5012280;28;20462;-45
2023/01/04 07:23:06;;;;;;;27.00;25.70;;;;;;;7.47;100.00;100604.16;4996404;28;20426;-45
2023/01/04 07:25:33;;;;;;;27.23;25.83;;;;;;;7.50;100.00;100593.16;5005686;28;20831;-46
2023/01/04 07:28:02;;;;;;;27.57;26.27;;;;;;;7.55;100.00;100582.88;5003589;28;20437;-44
2023/01/04 07:30:30;;;;;;;26.50;25.30;;;;;;;7.60;100.00;100584.97;5000293;28;20995;-47
2023/01/04 07:32:59;;;;;;;26.40;25.20;;;;;;;7.66;100.00;100573.63;5017015;28;20460;-44
2023/01/04 07:35:27;;;;;;;26.07;24.87;;;;;;;7.69;100.00;100586.53;5013498;28;20429;-44
2023/01/04 07:37:54;;;;;;;26.00;24.80;;;;;;;7.74;100.00;100576.19;5002073;28;20796;-44
2023/01/04 07:40:26;;;;;;;26.90;25.60;;;;;;;7.78;100.00;100565.03;5002916;28;20636;-45
2023/01/04 07:42:55;;;;;;;26.40;25.20;;;;;;;7.84;100.00;100579.41;5000931;28;21071;-46
2023/01/04 07:45:23;;;;;;;27.07;25.70;;;;;;;7.89;100.00;100570.88;4999473;28;20900;-45
2023/01/04 07:47:51;;;;;;;26.70;25.40;;;;;;;7.92;100.00;100565.19;5003654;28;20441;-47
2023/01/04 07:50:20;;;;;;;26.53;25.33;;;;;;;7.98;100.00;100552.00;4978680;28;20559;-44
2023/01/04 07:52:48;;;;;;;26.30;24.83;;;;;;;8.03;100.00;100560.28;4978324;28;20493;-44
2023/01/04 07:55:15;;;;;;;25.70;24.50;;;;;;;8.09;100.00;100556.06;4999601;28;20481;-46
2023/01/04 07:57:43;;;;;;;26.00;24.70;;;;;;;8.14;100.00;100549.16;4982127;28;20430;-44
2023/01/04 08:00:12;;;;;;;26.30;24.77;;;;;;;8.19;100.00;100551.25;4982304;28;20899;-44
2023/01/04 08:02:40;;;;;;;25.80;24.60;;;;;;;8.25;100.00;100563.81;5003304;28;20434;-44
2023/01/04 08:05:08;;;;;;;25.70;24.50;;;;;;;8.29;100.00;100550.00;5002108;28;20483;-46
2023/01/04 08:07:37;;;;;;;26.70;25.30;;;;;;;8.33;100.00;100566.41;5006055;28;20472;-46
2023/01/04 08:10:06;;;;;;;26.40;25.10;;;;;;;8.38;100.00;100558.69;5004119;28;20465;-45
2023/01/04 08:12:34;;;;;;;26.37;24.90;;;;;;;8.45;100.00;100574.72;5005579;28;20875;-43
2023/01/04 08:15:01;;;;;;;25.83;24.20;;;;;;;8.49;100.00;100568.81;5009076;28;20460;-44
2023/01/04 08:17:29;;;;;;;25.77;24.50;;;;;;;8.55;100.00;100564.59;4982444;28;20553;-44
2023/01/04 08:19:57;;;;;;;26.43;25.10;;;;;;;8.59;100.00;100572.03;4983655;28;20461;-44
2023/01/04 08:22:24;;;;;;;25.97;24.77;;;;;;;8.62;100.00;100557.53;4980859;28;20439;-45
2023/01/04 08:24:53;;;;;;;26.10;24.90;;;;;;;8.67;100.00;100571.91;4986035;28;20560;-45
2023/01/04 08:27:21;;;;;;;26.43;25.13;;;;;;;8.75;100.00;100569.09;4991351;28;20928;-45
2023/01/04 08:29:48;;;;;;;27.27;26.07;;;;;;;8.78;100.00;100565.28;5006161;28;20468;-45
2023/01/04 08:32:16;;;;;;;25.90;24.60;;;;;;;8.84;100.00;100562.66;5001176;28;20438;-46
2023/01/04 08:34:43;;;;;;;25.13;24.03;;;;;;;8.89;100.00;100559.44;5009380;28;20935;-44
2023/01/04 08:37:11;;;;;;;26.50;25.20;;;;;;;8.92;100.00;100548.44;4982651;28;20803;-45
2023/01/04 08:39:39;;;;;;;26.80;25.40;;;;;;;8.97;100.00;100558.47;5004991;28;20496;-46
2023/01/04 08:42:15;;;;;;;27.00;25.60;;;;;;;9.01;100.00;100557.94;4994014;28;20786;-46
2023/01/04 08:44:59;;;;;;;27.50;26.00;;;;;;;9.04;100.00;100552.22;4978500;28;20478;-45
2023/01/04 08:47:27;;;;;;;27.30;25.90;;;;;;;9.07;100.00;100543.84;4978241;28;20525;-47
2023/01/04 08:49:56;;;;;;;27.60;26.10;;;;;;;9.13;100.00;100544.94;4995298;28;21074;-50
2023/01/04 08:52:24;;;;;;;27.63;26.33;;;;;;;9.15;100.00;100550.88;4993340;28;21047;-45
2023/01/04 08:54:52;;;;;;;29.13;27.33;;;;;;;9.19;100.00;100541.50;4985066;28;20950;-47
2023/01/04 08:57:21;;;;;;;28.70;27.20;;;;;;;9.23;100.00;100534.75;5005494;28;20512;-48
2023/01/04 08:59:49;;;;;;;28.80;27.40;;;;;;;9.23;100.00;100538.25;4975421;28;20470;-45
2023/01/04 09:02:22;;;;;;;28.90;27.40;;;;;;;9.27;100.00;100539.50;4986284;28;20447;-45
2023/01/04 09:04:50;;;;;;;29.00;27.50;;;;;;;9.30;100.00;100538.31;4980282;28;20569;-48
2023/01/04 09:07:18;;;;;;;29.47;27.97;;;;;;;9.32;100.00;100537.09;4996105;28;20442;-45
2023/01/04 09:09:46;;;;;;;29.10;27.50;;;;;;;9.32;100.00;100525.63;4997642;28;20466;-45
2023/01/04 09:12:13;;;;;;;30.00;28.50;;;;;;;9.32;100.00;100541.59;4995865;28;20433;-47
2023/01/04 09:14:42;;;;;;;29.30;27.90;;;;;;;9.33;100.00;100530.75;4993366;28;20437;-46
2023/01/04 09:17:10;;;;;;;29.47;28.03;;;;;;;9.34;100.00;100539.56;4993446;28;20800;-47
2023/01/04 09:19:38;;;;;;;29.10;27.60;;;;;;;9.37;100.00;100541.84;4992870;28;20470;-50
2023/01/04 09:22:05;;;;;;;28.90;27.30;;;;;;;9.38;100.00;100552.28;4993322;28;20464;-44
2023/01/04 09:24:34;;;;;;;29.50;27.90;;;;;;;9.38;100.00;100544.31;4992952;28;20442;-44
2023/01/04 09:27:03;;;;;;;30.20;28.57;;;;;;;9.41;100.00;100548.41;4992991;28;20474;-46
2023/01/04 09:29:31;;;;;;;31.20;29.50;;;;;;;9.42;100.00;100542.91;4992478;28;20979;-44
2023/01/04 09:32:00;;;;;;;29.77;28.20;;;;;;;9.44;100.00;100548.03;4991902;28;20462;-45
2023/01/04 09:34:28;;;;;;;29.37;27.80;;;;;;;9.45;100.00;100544.34;4992837;28;20528;-44
2023/01/04 09:36:56;;;;;;;29.20;27.37;;;;;;;9.48;100.00;100554.63;4994135;28;20440;-44
2023/01/04 09:39:25;;;;;;;31.50;29.70;;;;;;;9.47;100.00;100537.00;5003660;28;20476;-44
2023/01/04 09:41:56;;;;;;;30.07;28.47;;;;;;;9.51;100.00;100540.91;5012663;28;20441;-46
2023/01/04 09:44:36;;;;;;;29.40;27.90;;;;;;;9.51;100.00;100545.41;5012323;28;21015;-49
2023/01/04 09:47:34;;;;;;;29.73;27.90;;;;;;;9.54;100.00;100553.84;5012029;28;20461;-44
2023/01/04 09:50:09;;;;;;;30.87;28.60;;;;;;;9.55;100.00;100549.34;5011854;28;20496;-45
2023/01/04 09:52:48;;;;;;;30.17;28.67;;;;;;;9.54;100.00;100535.22;4989100;28;20443;-44
2023/01/04 09:55:20;;;;;;;29.27;27.77;;;;;;;9.57;100.00;100539.31;4978524;28;21138;-44
2023/01/04 09:58:15;;;;;;;30.03;28.53;;;;;;;9.58;100.00;100531.16;4999527;28;20494;-44
2023/01/04 10:00:46;;;;;;;29.97;28.47;;;;;;;9.59;100.00;100534.63;5006568;28;20460;-47
2023/01/04 10:03:21;;;;;;;30.60;29.00;;;;;;;9.59;100.00;100538.09;5011837;28;20413;-44
2023/01/04 10:05:51;;;;;;;30.57;29.00;;;;;;;9.61;100.00;100546.72;4996103;28;20472;-46
2023/01/04 10:08:19;;;;;;;30.90;29.40;;;;;;;9.63;100.00;100534.03;5004498;28;20456;-44
2023/01/04 10:10:52;;;;;;;31.60;29.90;;;;;;;9.65;100.00;100533.81;5010945;28;20548;-45
2023/01/04 10:13:36;;;;;;;30.60;29.10;;;;;;;9.64;100.00;100546.34;5011917;28;20429;-47
2023/01/04 10:16:14;;;;;;;32.67;30.77;;;;;;;9.65;100.00;100531.16;4999232;28;20431;-50
2023/01/04 10:18:52;;;;;;;32.13;30.53;;;;;;;9.66;100.00;100530.16;5002804;28;20448;-44
2023/01/04 10:21:47;;;;;;;33.50;31.90;;;;;;;9.66;100.00;100522.16;5011586;28;20468;-46
2023/01/04 10:24:32;;;;;;;36.20;34.37;;;;;;;9.65;100.00;100516.03;4987605;28;20518;-44
2023/01/04 10:27:07;;;;;;;32.30;30.50;;;;;;;9.67;100.00;100510.50;5011997;28;20526;-44
2023/01/04 10:29:42;;;;;;;32.47;30.87;;;;;;;9.67;100.00;100514.00;4992111;28;20457;-44
2023/01/04 10:32:19;;;;;;;32.27;30.67;;;;;;;9.69;100.00;100495.16;4994198;28;20440;-45
2023/01/04 10:34:48;;;;;;;34.70;33.00;;;;;;;9.73;100.00;100499.91;4993382;28;20453;-44
2023/01/04 10:37:19;;;;;;;33.70;32.10;;;;;;;9.79;100.00;100504.44;4997983;28;20429;-45
2023/01/04 10:39:53;;;;;;;32.40;30.60;;;;;;;9.82;100.00;100504.06;5005296;28;20463;-44
2023/01/04 10:42:32;;;;;;;32.00;30.40;;;;;;;9.82;100.00;100503.22;5012925;28;20822;-44
2023/01/04 10:45:13;;;;;;;32.77;31.17;;;;;;;9.85;100.00;100505.50;5012259;28;20456;-44
2023/01/04 10:47:52;;;;;;;31.63;30.03;;;;;;;9.84;100.00;100502.00;5012976;28;20481;-44
2023/01/04 10:50:27;;;;;;;31.37;29.77;;;;;;;9.83;100.00;100502.19;5012966;28;20536;-46
2023/01/04 10:53:01;;;;;;;32.60;30.80;;;;;;;9.84;100.00;100498.50;5012346;28;20425;-50
2023/01/04 10:55:36;;;;;;;33.93;32.23;;;;;;;9.84;100.00;100487.84;5011809;28;20433;-44
2023/01/04 10:58:10;;;;;;;33.90;32.10;;;;;;;9.83;100.00;100489.69;5012866;28;20439;-44
2023/01/04 11:00:43;;;;;;;32.90;31.10;;;;;;;9.84;100.00;100482.53;5012531;28;20432;-44
2023/01/04 11:03:18;;;;;;;33.13;31.20;;;;;;;9.87;100.00;100482.13;5012018;28;20480;-45
2023/01/04 11:05:51;;;;;;;31.37;29.77;;;;;;;9.86;100.00;100459.19;5012223;28;20827;-45
2023/01/04 11:08:23;;;;;;;32.40;30.70;;;;;;;9.85;100.00;100469.03;5013204;28;20520;-46
2023/01/04 11:10:55;;;;;;;32.50;30.50;;;;;;;9.85;100.00;100468.22;5012600;28;20615;-45
2023/01/04 11:13:24;;;;;;;32.97;31.27;;;;;;;9.82;100.00;100460.63;5016342;28;20483;-46
2023/01/04 11:15:52;;;;;;;32.80;31.07;;;;;;;9.82;100.00;100457.94;5016630;28;20433;-44
2023/01/04 11:18:20;;;;;;;31.70;29.93;;;;;;;9.83;100.00;100464.91;5015990;28;20469;-44
2023/01/04 11:20:50;;;;;;;30.00;28.40;;;;;;;9.91;100.00;100468.25;5015933;28;20439;-45
2023/01/04 11:23:19;;;;;;;31.27;29.47;;;;;;;9.94;100.00;100453.69;5015651;28;20460;-47
2023/01/04 11:25:52;;;;;;;29.77;28.20;;;;;;;9.95;100.00;100453.47;5015319;28;20524;-44
2023/01/04 11:28:27;;;;;;;31.27;29.67;;;;;;;9.94;100.00;100457.19;5015429;28;20814;-47
2023/01/04 11:31:03;;;;;;;31.17;29.67;;;;;;;9.93;100.00;100460.88;5016105;28;20436;-46
2023/01/04 11:33:31;;;;;;;31.80;30.10;;;;;;;9.92;100.00;100453.88;5015059;28;20456;-44
2023/01/04 11:36:01;;;;;;;31.77;30.17;;;;;;;9.89;100.00;100451.63;5014916;28;20524;-45
2023/01/04 11:38:30;;;;;;;31.70;30.10;;;;;;;9.89;100.00;100438.28;5006960;28;20462;-47
2023/01/04 11:41:01;;;;;;;31.33;29.63;;;;;;;9.89;100.00;100437.47;5013570;28;20599;-45
2023/01/04 11:43:30;;;;;;;31.27;29.67;;;;;;;9.86;100.00;100428.03;5014897;28;20506;-44
2023/01/04 11:46:03;;;;;;;29.13;27.63;;;;;;;9.85;100.00;100418.44;5015401;28;20490;-44
2023/01/04 11:48:34;;;;;;;31.23;29.13;;;;;;;9.81;100.00;100424.34;5015834;28;20820;-45
2023/01/04 11:51:05;;;;;;;31.57;29.53;;;;;;;9.77;100.00;100420.41;5016233;28;20473;-47
2023/01/04 11:53:37;;;;;;;31.67;29.80;;;;;;;9.74;100.00;100416.31;5015342;28;20989;-44
2023/01/04 11:56:17;;;;;;;31.23;29.53;;;;;;;9.73;100.00;100420.03;5015604;28;20795;-44
2023/01/04 11:59:03;;;;;;;32.47;29.97;;;;;;;9.72;100.00;100418.38;5016026;28;21147;-45
2023/01/04 12:01:31;;;;;;;32.47;30.37;;;;;;;9.73;100.00;100419.19;5016669;28;20799;-44
2023/01/04 12:04:00;;;;;;;31.90;29.40;;;;;;;9.71;100.00;100392.75;5015468;28;20551;-44
2023/01/04 12:06:36;;;;;;;32.77;30.70;;;;;;;9.70;100.00;100404.44;5015819;28;20477;-47
2023/01/04 12:09:04;;;;;;;32.30;30.03;;;;;;;9.70;100.00;100393.78;5016190;28;20460;-47